createdAt,value
2022-09-28T00:02:41.413Z,11.99
2022-09-28T00:05:44.400Z,11.99
2022-09-28T00:08:49.461Z,11.99
2022-09-28T00:11:57.528Z,11.99
2022-09-28T00:15:00.355Z,12.00
2022-09-28T00:18:03.195Z,11.99
2022-09-28T00:21:14.706Z,12.00
2022-09-28T00:24:20.520Z,12.00
2022-09-28T00:27:24.924Z,12.00
2022-09-28T00:30:27.746Z,12.01
2022-09-28T00:33:30.892Z,12.01
2022-09-28T00:36:34.964Z,12.00
2022-09-28T00:39:43.518Z,12.00
2022-09-28T00:42:47.120Z,11.98
2022-09-28T00:46:02.590Z,11.95
2022-09-28T00:49:11.548Z,11.91
2022-09-28T00:52:31.972Z,11.87
2022-09-28T00:56:09.765Z,11.85
2022-09-28T00:59:14.025Z,11.83
2022-09-28T01:02:18.107Z,11.81
2022-09-28T01:05:25.761Z,11.80
2022-09-28T01:08:31.775Z,11.79
2022-09-28T01:11:37.845Z,11.77
2022-09-28T01:14:41.375Z,11.76
2022-09-28T01:18:09.966Z,11.76
2022-09-28T01:21:20.260Z,11.75
2022-09-28T01:24:30.196Z,11.73
2022-09-28T01:27:50.449Z,11.74
2022-09-28T01:31:13.934Z,11.74
2022-09-28T01:34:41.840Z,11.75
2022-09-28T01:37:56.869Z,11.75
2022-09-28T01:41:00.788Z,11.76
2022-09-28T01:44:08.819Z,11.77
2022-09-28T01:47:15.711Z,11.77
2022-09-28T01:50:23.347Z,11.78
2022-09-28T01:53:35.806Z,11.78
2022-09-28T01:56:46.559Z,11.78
2022-09-28T01:59:58.297Z,11.80
2022-09-28T02:03:33.006Z,11.79
2022-09-28T02:06:40.601Z,11.77
2022-09-28T02:09:49.516Z,11.77
2022-09-28T02:12:59.594Z,11.77
2022-09-28T02:16:10.176Z,11.76
2022-09-28T02:19:16.859Z,11.75
2022-09-28T02:22:33.798Z,11.74
2022-09-28T02:25:36.780Z,11.73
2022-09-28T02:28:39.916Z,11.72
2022-09-28T02:31:43.261Z,11.70
2022-09-28T02:34:46.690Z,11.70
2022-09-28T02:37:50.432Z,11.69
2022-09-28T02:41:12.225Z,11.68
2022-09-28T02:44:33.775Z,11.66
2022-09-28T02:47:55.338Z,11.61
2022-09-28T02:51:26.216Z,11.58
2022-09-28T02:54:47.441Z,11.56
2022-09-28T02:57:53.315Z,11.52
2022-09-28T03:01:25.546Z,11.50
2022-09-28T03:04:33.357Z,11.49
2022-09-28T03:07:41.725Z,11.47
2022-09-28T03:10:58.868Z,11.45
2022-09-28T03:14:03.243Z,11.44
2022-09-28T03:17:14.112Z,11.42
2022-09-28T03:20:17.213Z,11.40
2022-09-28T03:23:24.870Z,11.38
2022-09-28T03:26:28.382Z,11.38
2022-09-28T03:29:33.146Z,11.37
2022-09-28T03:32:39.072Z,11.35
2022-09-28T03:35:42.170Z,11.34
2022-09-28T03:38:45.930Z,11.34
2022-09-28T03:41:48.965Z,11.34
2022-09-28T03:44:52.591Z,11.34
2022-09-28T03:47:55.538Z,11.33
2022-09-28T03:51:01.488Z,11.31
2022-09-28T03:54:04.893Z,11.31
2022-09-28T03:57:07.888Z,11.31
2022-09-28T04:00:11.605Z,11.29
2022-09-28T04:03:17.530Z,11.29
2022-09-28T04:06:20.630Z,11.29
2022-09-28T04:09:23.499Z,11.29
2022-09-28T04:12:26.322Z,11.27
2022-09-28T04:15:29.210Z,11.27
2022-09-28T04:18:33.403Z,11.26
2022-09-28T04:21:54.633Z,11.25
2022-09-28T04:24:58.295Z,11.22
2022-09-28T04:28:19.765Z,11.21
2022-09-28T04:31:24.589Z,11.20
2022-09-28T04:34:31.881Z,11.18
2022-09-28T04:37:37.534Z,11.18
2022-09-28T04:40:40.482Z,11.17
2022-09-28T04:43:46.927Z,11.16
2022-09-28T04:46:51.441Z,11.15
2022-09-28T04:50:07.005Z,11.14
2022-09-28T04:53:12.057Z,11.13
2022-09-28T04:56:17.246Z,11.13
2022-09-28T04:59:20.134Z,11.13
2022-09-28T05:02:23.154Z,11.14
2022-09-28T05:05:45.641Z,11.14
2022-09-28T05:09:08.131Z,11.11
2022-09-28T05:12:11.037Z,11.12
2022-09-28T05:15:14.498Z,11.11
2022-09-28T05:18:17.493Z,11.11
2022-09-28T05:21:36.948Z,11.09
2022-09-28T05:24:39.958Z,11.08
2022-09-28T05:27:42.858Z,11.07
2022-09-28T05:31:05.922Z,11.08
2022-09-28T05:34:27.567Z,11.07
2022-09-28T05:37:31.435Z,11.06
2022-09-28T05:40:34.408Z,11.07
2022-09-28T05:43:38.466Z,11.05
2022-09-28T05:46:41.690Z,11.04
2022-09-28T05:49:46.026Z,11.02
2022-09-28T05:53:01.494Z,11.02
2022-09-28T05:56:04.542Z,11.02
2022-09-28T05:59:09.421Z,11.03
2022-09-28T06:02:12.877Z,11.04
2022-09-28T06:05:15.924Z,11.06
2022-09-28T06:08:19.335Z,11.08
2022-09-28T06:11:28.769Z,11.13
2022-09-28T06:14:33.817Z,11.17
2022-09-28T06:17:36.701Z,11.22
2022-09-28T06:21:11.385Z,11.26
2022-09-28T06:24:18.948Z,11.28
2022-09-28T06:27:22.700Z,11.30
2022-09-28T06:30:27.378Z,11.32
2022-09-28T06:33:30.554Z,11.35
2022-09-28T06:36:33.912Z,11.38
2022-09-28T06:39:36.850Z,11.41
2022-09-28T06:42:40.003Z,11.43
2022-09-28T06:46:01.436Z,11.45
2022-09-28T06:49:23.139Z,11.48
2022-09-28T06:52:53.783Z,11.50
2022-09-28T06:56:15.529Z,11.50
2022-09-28T06:59:18.563Z,11.50
2022-09-28T07:02:23.221Z,11.49
2022-09-28T07:05:54.686Z,11.50
2022-09-28T07:09:31.333Z,11.49
2022-09-28T07:12:58.013Z,11.49
2022-09-28T07:16:10.000Z,11.50
2022-09-28T07:19:16.581Z,11.52
2022-09-28T07:22:29.744Z,11.57
2022-09-28T07:25:38.313Z,11.64
2022-09-28T07:28:46.921Z,11.70
2022-09-28T07:32:22.770Z,11.76
2022-09-28T07:35:54.105Z,11.82
2022-09-28T07:38:59.150Z,11.91
2022-09-28T07:42:03.515Z,11.98
2022-09-28T07:45:07.907Z,12.01
2022-09-28T07:51:26.623Z,12.05
2022-09-28T07:54:52.331Z,12.05
2022-09-28T07:58:13.611Z,12.05
2022-09-28T08:01:26.011Z,12.04
2022-09-28T08:04:31.517Z,12.03
2022-09-28T08:07:34.875Z,12.02
2022-09-28T08:10:47.261Z,12.00
2022-09-28T08:14:25.140Z,11.98
2022-09-28T08:17:36.096Z,11.97
2022-09-28T08:21:01.351Z,12.02
2022-09-28T08:24:04.765Z,12.03
2022-09-28T08:27:07.817Z,12.07
2022-09-28T08:30:11.841Z,12.11
2022-09-28T08:33:23.738Z,12.15
2022-09-28T08:36:45.066Z,12.20
2022-09-28T08:40:13.726Z,12.24
2022-09-28T08:43:51.256Z,12.28
2022-09-28T08:47:49.533Z,12.34
2022-09-28T08:51:20.159Z,12.41
2022-09-28T08:54:46.143Z,12.44
2022-09-28T08:58:17.712Z,12.48
2022-09-28T09:01:23.652Z,12.55
2022-09-28T09:04:27.263Z,12.62
2022-09-28T09:08:02.039Z,12.77
2022-09-28T09:11:07.925Z,12.92
2022-09-28T09:14:50.645Z,13.07
2022-09-28T09:18:29.437Z,13.23
2022-09-28T09:22:01.811Z,13.38
2022-09-28T09:25:14.780Z,13.46
2022-09-28T09:28:27.364Z,13.55
2022-09-28T09:31:59.641Z,13.62
2022-09-28T09:35:30.784Z,13.60
2022-09-28T09:39:21.732Z,13.54
2022-09-28T09:43:04.370Z,13.55
2022-09-28T09:46:39.596Z,13.56
2022-09-28T09:50:06.817Z,13.55
2022-09-28T09:53:27.698Z,13.62
2022-09-28T09:56:45.490Z,13.71
2022-09-28T10:00:17.468Z,13.83
2022-09-28T10:03:34.241Z,13.93
2022-09-28T10:06:49.869Z,14.04
2022-09-28T10:10:01.942Z,14.07
2022-09-28T10:13:13.704Z,14.12
2022-09-28T10:16:21.471Z,14.27
2022-09-28T10:19:34.904Z,14.39
2022-09-28T10:22:58.095Z,14.40
2022-09-28T10:26:12.632Z,14.38
2022-09-28T10:29:25.195Z,14.33
2022-09-28T10:32:39.748Z,14.44
2022-09-28T10:35:43.481Z,14.57
2022-09-28T10:38:48.649Z,14.82
2022-09-28T10:42:07.425Z,15.10
2022-09-28T10:45:21.756Z,15.28
2022-09-28T10:48:24.759Z,15.44
2022-09-28T10:51:46.773Z,15.52
2022-09-28T10:54:53.702Z,15.70
2022-09-28T10:58:00.983Z,15.95
2022-09-28T11:01:17.395Z,16.16
2022-09-28T11:04:27.944Z,16.32
2022-09-28T11:07:45.803Z,16.44
2022-09-28T11:11:03.521Z,16.46
2022-09-28T11:14:29.123Z,16.37
2022-09-28T11:17:41.873Z,16.29
2022-09-28T11:20:46.750Z,16.29
2022-09-28T11:24:09.115Z,16.31
2022-09-28T11:27:35.676Z,16.19
2022-09-28T11:30:49.732Z,16.10
2022-09-28T11:34:58.050Z,16.07
2022-09-28T11:39:01.462Z,16.00
2022-09-28T11:42:35.122Z,15.87
2022-09-28T11:45:41.457Z,15.75
2022-09-28T11:48:51.450Z,15.65
2022-09-28T11:51:59.304Z,15.56
2022-09-28T11:55:19.074Z,15.50
2022-09-28T11:58:35.405Z,15.44
2022-09-28T12:01:58.067Z,15.37
2022-09-28T12:05:31.786Z,15.32
2022-09-28T12:08:44.465Z,15.37
2022-09-28T12:12:34.731Z,15.65
2022-09-28T12:16:38.382Z,15.75
2022-09-28T12:19:38.965Z,15.79
2022-09-28T12:22:54.839Z,15.95
2022-09-28T12:26:00.769Z,16.09
2022-09-28T12:29:11.883Z,16.20
2022-09-28T12:32:23.736Z,16.26
2022-09-28T12:35:44.831Z,16.23
2022-09-28T12:39:18.142Z,16.21
2022-09-28T12:42:58.744Z,16.17
2022-09-28T12:46:30.813Z,16.14
2022-09-28T12:53:55.415Z,15.95
2022-09-28T12:57:02.812Z,15.88
2022-09-28T13:00:13.806Z,15.82
2022-09-28T13:03:59.982Z,15.76
2022-09-28T13:07:34.593Z,15.68
2022-09-28T13:11:16.262Z,15.61
2022-09-28T13:14:50.287Z,15.58
2022-09-28T13:18:22.527Z,15.57
2022-09-28T13:21:35.620Z,15.52
2022-09-28T13:24:44.402Z,15.46
2022-09-28T13:28:07.685Z,15.43
2022-09-28T13:31:18.027Z,15.37
2022-09-28T13:34:37.085Z,15.33
2022-09-28T13:37:41.535Z,15.29
2022-09-28T13:41:06.113Z,15.24
2022-09-28T13:44:12.515Z,15.17
2022-09-28T13:47:42.979Z,15.11
2022-09-28T13:50:54.873Z,15.03
2022-09-28T13:54:26.412Z,14.97
2022-09-28T13:57:51.387Z,14.90
2022-09-28T14:01:05.064Z,14.85
2022-09-28T14:04:14.256Z,14.78
2022-09-28T14:07:25.194Z,14.74
2022-09-28T14:11:25.450Z,14.71
2022-09-28T14:14:44.792Z,14.67
2022-09-28T14:18:20.930Z,14.63
2022-09-28T14:21:48.022Z,14.59
2022-09-28T14:25:04.052Z,14.55
2022-09-28T14:28:28.988Z,14.52
2022-09-28T14:31:43.934Z,14.49
2022-09-28T14:34:57.114Z,14.46
2022-09-28T14:38:43.078Z,14.44
2022-09-28T14:41:46.108Z,14.40
2022-09-28T14:45:06.221Z,14.37
2022-09-28T14:48:19.292Z,14.34
2022-09-28T14:51:26.563Z,14.32
2022-09-28T14:54:51.362Z,14.28
2022-09-28T14:57:59.170Z,14.26
2022-09-28T15:01:07.313Z,14.21
2022-09-28T15:04:12.861Z,14.17
2022-09-28T15:07:24.966Z,14.13
2022-09-28T15:10:34.201Z,14.10
2022-09-28T15:13:38.194Z,14.10
2022-09-28T15:16:41.179Z,14.09
2022-09-28T15:20:07.224Z,14.08
2022-09-28T15:23:36.878Z,14.07
2022-09-28T15:26:39.774Z,14.05
2022-09-28T15:29:57.379Z,14.01
2022-09-28T15:33:22.290Z,13.99
2022-09-28T15:36:38.517Z,13.97
2022-09-28T15:39:41.676Z,13.94
2022-09-28T15:42:47.423Z,13.93
2022-09-28T15:46:06.724Z,13.90
2022-09-28T15:49:38.797Z,13.89
2022-09-28T15:52:54.071Z,13.86
2022-09-28T15:56:02.032Z,13.84
2022-09-28T15:59:13.717Z,13.80
2022-09-28T16:02:22.660Z,13.79
2022-09-28T16:05:36.799Z,13.77
2022-09-28T16:08:42.842Z,13.75
2022-09-28T16:11:50.949Z,13.75
2022-09-28T16:14:56.279Z,13.74
2022-09-28T16:18:03.121Z,13.73
2022-09-28T16:21:27.926Z,13.73
2022-09-28T16:24:34.351Z,13.72
2022-09-28T16:27:42.749Z,13.71
2022-09-28T16:31:01.920Z,13.70
2022-09-28T16:34:17.184Z,13.70
2022-09-28T16:37:31.782Z,13.69
2022-09-28T16:40:39.618Z,13.68
2022-09-28T16:43:42.650Z,13.67
2022-09-28T16:46:46.713Z,13.66
2022-09-28T16:49:50.262Z,13.65
2022-09-28T16:53:31.649Z,13.63
2022-09-28T16:56:36.534Z,13.58
2022-09-28T16:59:39.610Z,13.53
2022-09-28T17:02:46.562Z,13.49
2022-09-28T17:05:51.555Z,13.44
2022-09-28T17:08:58.870Z,13.40
2022-09-28T17:12:02.219Z,13.34
2022-09-28T17:15:05.509Z,13.31
2022-09-28T17:18:13.067Z,13.28
2022-09-28T17:21:19.484Z,13.24
2022-09-28T17:24:22.368Z,13.21
2022-09-28T17:27:25.830Z,13.18
2022-09-28T17:30:30.211Z,13.16
2022-09-28T17:33:33.253Z,13.13
2022-09-28T17:36:37.073Z,13.11
2022-09-28T17:39:40.014Z,13.09
2022-09-28T17:42:43.075Z,13.07
2022-09-28T17:45:47.534Z,13.05
2022-09-28T17:48:51.989Z,13.03
2022-09-28T17:51:55.069Z,13.01
2022-09-28T17:54:58.003Z,13.01
2022-09-28T17:58:03.148Z,13.00
2022-09-28T18:01:06.077Z,13.00
2022-09-28T18:04:23.023Z,13.00
2022-09-28T18:07:35.429Z,12.99
2022-09-28T18:10:38.516Z,12.99
2022-09-28T18:13:42.894Z,12.99
2022-09-28T18:16:46.490Z,12.99
2022-09-28T18:19:49.550Z,12.98
2022-09-28T18:22:52.716Z,12.97
2022-09-28T18:25:56.372Z,12.97
2022-09-28T18:28:59.423Z,12.97
2022-09-28T18:32:03.125Z,12.97
2022-09-28T18:35:08.816Z,12.96
2022-09-28T18:38:11.819Z,12.95
2022-09-28T18:41:16.202Z,12.95
2022-09-28T18:44:20.273Z,12.94
2022-09-28T18:47:24.623Z,12.95
2022-09-28T18:50:27.953Z,12.95
2022-09-28T18:53:34.782Z,12.95
2022-09-28T18:56:38.146Z,12.95
2022-09-28T18:59:41.161Z,12.96
2022-09-28T19:02:44.190Z,12.95
2022-09-28T19:05:48.678Z,12.94
2022-09-28T19:08:53.200Z,12.93
2022-09-28T19:11:56.598Z,12.92
2022-09-28T19:14:59.825Z,12.93
2022-09-28T19:18:04.294Z,12.92
2022-09-28T19:21:09.583Z,12.92
2022-09-28T19:24:17.320Z,12.91
2022-09-28T19:27:20.288Z,12.91
2022-09-28T19:30:23.238Z,12.92
2022-09-28T19:33:26.580Z,12.92
2022-09-28T19:36:31.390Z,12.93
2022-09-28T19:39:35.200Z,12.93
2022-09-28T19:42:39.605Z,12.93
2022-09-28T19:45:46.961Z,12.93
2022-09-28T19:48:50.171Z,12.93
2022-09-28T19:52:14.435Z,12.93
2022-09-28T19:55:21.166Z,12.93
2022-09-28T19:58:28.168Z,12.94
2022-09-28T20:01:32.048Z,12.93
2022-09-28T20:04:35.422Z,12.94
2022-09-28T20:07:39.824Z,12.94
2022-09-28T20:10:54.767Z,12.93
2022-09-28T20:14:02.441Z,12.93
2022-09-28T20:17:05.413Z,12.92
2022-09-28T20:20:08.907Z,12.90
2022-09-28T20:23:12.153Z,12.88
2022-09-28T20:26:20.104Z,12.89
2022-09-28T20:29:24.402Z,12.88
2022-09-28T20:32:35.525Z,12.88
2022-09-28T20:35:41.142Z,12.86
2022-09-28T20:38:47.754Z,12.85
2022-09-28T20:41:50.664Z,12.84
2022-09-28T20:44:53.998Z,12.83
2022-09-28T20:47:57.136Z,12.81
2022-09-28T20:51:10.317Z,12.81
2022-09-28T20:54:13.403Z,12.79
2022-09-28T20:57:19.113Z,12.78
2022-09-28T21:00:23.013Z,12.76
2022-09-28T21:03:25.983Z,12.77
2022-09-28T21:06:31.262Z,12.76
2022-09-28T21:09:34.625Z,12.76
2022-09-28T21:12:38.941Z,12.74
2022-09-28T21:15:42.000Z,12.74
2022-09-28T21:18:45.267Z,12.74
2022-09-28T21:21:48.282Z,12.74
2022-09-28T21:24:51.379Z,12.74
2022-09-28T21:27:54.427Z,12.74
2022-09-28T21:30:58.138Z,12.73
2022-09-28T21:34:01.357Z,12.73
2022-09-28T21:37:04.327Z,12.71
2022-09-28T21:40:09.834Z,12.71
2022-09-28T21:43:13.331Z,12.70
2022-09-28T21:46:17.637Z,12.70
2022-09-28T21:49:20.693Z,12.69
2022-09-28T21:52:23.641Z,12.69
2022-09-28T21:55:26.601Z,12.68
2022-09-28T21:58:33.626Z,12.66
2022-09-28T22:01:36.691Z,12.65
2022-09-28T22:04:39.822Z,12.65
2022-09-28T22:07:43.227Z,12.65
2022-09-28T22:10:46.439Z,12.63
2022-09-28T22:13:55.097Z,12.61
2022-09-28T22:16:58.043Z,12.59
2022-09-28T22:20:01.352Z,12.57
2022-09-28T22:23:04.309Z,12.56
2022-09-28T22:26:08.491Z,12.55
2022-09-28T22:29:11.453Z,12.55
2022-09-28T22:32:14.378Z,12.53
2022-09-28T22:35:17.343Z,12.54
2022-09-28T22:38:22.238Z,12.54
2022-09-28T22:41:25.529Z,12.54
2022-09-28T22:44:28.464Z,12.54
2022-09-28T22:47:31.353Z,12.55
2022-09-28T22:50:34.550Z,12.54
2022-09-28T22:53:38.032Z,12.52
2022-09-28T22:56:41.011Z,12.51
2022-09-28T22:59:43.967Z,12.49
2022-09-28T23:02:47.090Z,12.48
2022-09-28T23:05:54.441Z,12.47
2022-09-28T23:08:57.821Z,12.45
2022-09-28T23:12:00.983Z,12.43
2022-09-28T23:15:04.297Z,12.42
2022-09-28T23:18:08.515Z,12.42
2022-09-28T23:21:15.407Z,12.39
2022-09-28T23:24:18.717Z,12.38
2022-09-28T23:27:21.859Z,12.37
2022-09-28T23:30:24.900Z,12.36
2022-09-28T23:33:27.839Z,12.36
2022-09-28T23:36:31.031Z,12.33
2022-09-28T23:39:33.988Z,12.32
2022-09-28T23:42:37.052Z,12.30
2022-09-28T23:45:42.288Z,12.30
2022-09-28T23:48:45.433Z,12.28
2022-09-28T23:51:48.362Z,12.27
2022-09-28T23:54:51.305Z,12.25
2022-09-28T23:57:55.706Z,12.24
